Time;durP1;ratioP1;P1;durP2;ratioP2;P2;SDS_P1;SDS_P2;PMS_P1;PMS_P2;Temp;Humidity;BMP_temperature;BMP_pressure;BME280_temperature;BME280_humidity;BME280_pressure;Samples;Min_cycle;Max_cycle;Signal;HPM_P1;HPM_P2
2021/01/11 00:02:24;;;;;;;0.40;0.40;;;2.00;99.90;;;;;;4827599;29;20684;-85
2021/01/11 00:04:50;;;;;;;0.50;0.50;;;2.00;99.90;;;;;;4828241;29;20413;-84
2021/01/11 00:07:17;;;;;;;0.40;0.40;;;2.00;99.90;;;;;;4829097;29;20226;-85
2021/01/11 00:09:44;;;;;;;0.50;0.50;;;2.00;99.90;;;;;;4827871;29;20240;-85
2021/01/11 00:12:10;;;;;;;0.40;0.40;;;2.00;99.90;;;;;;4827940;29;20215;-85
2021/01/11 00:14:36;;;;;;;0.40;0.40;;;2.00;99.90;;;;;;4829532;29;20268;-85
2021/01/11 00:17:04;;;;;;;0.40;0.40;;;2.00;99.90;;;;;;4827404;29;20232;-85
2021/01/11 00:22:58;;;;;;;0.40;0.40;;;2.10;99.90;;;;;;4807661;29;20760;-86
2021/01/11 00:25:27;;;;;;;0.40;0.40;;;2.10;99.90;;;;;;4828614;29;20211;-86
2021/01/11 00:27:53;;;;;;;0.40;0.40;;;;;;;;;;4827970;29;20342;-86
2021/01/11 00:30:21;;;;;;;0.47;0.47;;;2.10;99.90;;;;;;4828820;29;20200;-86
2021/01/11 00:32:47;;;;;;;0.40;0.40;;;2.10;99.90;;;;;;4828284;29;20292;-85
2021/01/11 00:35:13;;;;;;;0.40;0.40;;;2.10;99.90;;;;;;4827525;29;20657;-86
2021/01/11 00:37:39;;;;;;;0.40;0.40;;;2.20;99.90;;;;;;4816683;29;20736;-85
2021/01/11 00:40:08;;;;;;;0.40;0.40;;;2.00;99.90;;;;;;4818118;29;20593;-85
2021/01/11 00:42:35;;;;;;;0.40;0.40;;;2.10;99.90;;;;;;4819255;29;20208;-86
2021/01/11 00:45:03;;;;;;;0.50;0.50;;;2.00;99.90;;;;;;4819500;29;20208;-86
2021/01/11 00:47:29;;;;;;;0.40;0.40;;;2.10;99.90;;;;;;4819821;29;20208;-85
2021/01/11 00:49:55;;;;;;;0.47;0.47;;;2.00;99.90;;;;;;4819916;29;20208;-86
2021/01/11 00:52:21;;;;;;;0.40;0.40;;;2.20;99.90;;;;;;4819567;29;20223;-86
2021/01/11 00:54:47;;;;;;;0.40;0.40;;;2.10;99.90;;;;;;4819817;29;20212;-85
2021/01/11 00:57:13;;;;;;;0.47;0.47;;;2.00;99.90;;;;;;4819663;29;20259;-86
2021/01/11 00:59:40;;;;;;;0.43;0.43;;;2.10;99.90;;;;;;4819719;29;20620;-85
2021/01/11 01:02:06;;;;;;;0.40;0.40;;;2.10;99.90;;;;;;4819593;29;20420;-86
2021/01/11 01:04:34;;;;;;;0.40;0.40;;;2.10;99.90;;;;;;4819599;29;20799;-85
2021/01/11 01:07:02;;;;;;;0.40;0.40;;;2.10;99.90;;;;;;4819288;29;20216;-86
2021/01/11 01:09:28;;;;;;;0.40;0.40;;;2.10;99.90;;;;;;4819526;29;20303;-86
2021/01/11 01:11:57;;;;;;;0.40;0.40;;;2.10;99.90;;;;;;4819347;29;20243;-85
2021/01/11 01:14:23;;;;;;;0.40;0.40;;;2.00;99.90;;;;;;4819303;29;20212;-86
2021/01/11 01:16:51;;;;;;;0.40;0.40;;;2.20;99.90;;;;;;4819089;29;20243;-85
2021/01/11 01:19:17;;;;;;;0.40;0.40;;;2.00;99.90;;;;;;4819164;29;20212;-85
2021/01/11 01:21:43;;;;;;;0.40;0.40;;;2.10;99.90;;;;;;4819209;29;20216;-86
2021/01/11 01:24:10;;;;;;;0.40;0.40;;;2.10;99.90;;;;;;4819010;29;20244;-86
2021/01/11 01:26:36;;;;;;;0.40;0.40;;;2.10;99.90;;;;;;4819208;29;20209;-85
2021/01/11 01:29:02;;;;;;;0.40;0.40;;;2.10;99.90;;;;;;4819124;29;20212;-85
2021/01/11 01:31:28;;;;;;;0.40;0.40;;;2.10;99.90;;;;;;4819117;29;20216;-85
2021/01/11 01:33:55;;;;;;;0.40;0.40;;;2.10;99.90;;;;;;4819398;29;20205;-85
2021/01/11 01:36:21;;;;;;;0.40;0.40;;;2.20;99.90;;;;;;4818798;29;20236;-85
2021/01/11 01:38:48;;;;;;;0.40;0.40;;;2.20;99.90;;;;;;4819327;29;20213;-85
2021/01/11 01:41:15;;;;;;;0.40;0.40;;;2.20;99.90;;;;;;4818770;29;20216;-86
2021/01/11 01:43:41;;;;;;;0.40;0.40;;;2.20;99.90;;;;;;4819088;29;20216;-85
2021/01/11 01:46:11;;;;;;;0.40;0.40;;;2.30;99.90;;;;;;4818981;29;20208;-86
2021/01/11 01:48:38;;;;;;;0.40;0.40;;;2.20;99.90;;;;;;4819047;29;20264;-85
2021/01/11 01:51:07;;;;;;;0.40;0.40;;;2.10;99.90;;;;;;4818768;29;20212;-85
2021/01/11 01:53:33;;;;;;;0.40;0.40;;;2.20;99.90;;;;;;4818723;29;20212;-86
2021/01/11 01:56:01;;;;;;;0.40;0.40;;;2.20;99.90;;;;;;4818824;29;20212;-85
2021/01/11 01:58:27;;;;;;;0.40;0.40;;;1.90;99.90;;;;;;4818559;29;20249;-85
2021/01/11 02:00:53;;;;;;;0.40;0.40;;;2.30;99.90;;;;;;4818780;29;20268;-85
2021/01/11 02:03:19;;;;;;;0.40;0.40;;;2.20;99.90;;;;;;4818388;29;20365;-85
2021/01/11 02:05:45;;;;;;;0.40;0.40;;;2.20;99.90;;;;;;4818695;29;20212;-85
2021/01/11 02:08:20;;;;;;;0.40;0.40;;;2.30;99.90;;;;;;4818555;29;20216;-85
2021/01/11 02:10:58;;;;;;;0.50;0.50;;;2.20;99.90;;;;;;4818895;29;20591;-85
2021/01/11 02:13:36;;;;;;;0.40;0.40;;;2.20;99.90;;;;;;4818359;29;20216;-85
2021/01/11 02:16:08;;;;;;;0.40;0.40;;;2.70;99.90;;;;;;4818730;29;20208;-85
2021/01/11 02:18:46;;;;;;;0.40;0.40;;;2.10;99.90;;;;;;4818511;29;20209;-85
2021/01/11 02:21:37;;;;;;;0.40;0.40;;;2.20;99.90;;;;;;4818467;29;20212;-85
2021/01/11 02:24:38;;;;;;;0.40;0.40;;;2.20;99.90;;;;;;4818349;29;20244;-85
2021/01/11 02:27:20;;;;;;;0.40;0.40;;;2.20;99.90;;;;;;4818499;29;20215;-85
2021/01/11 02:30:32;;;;;;;0.40;0.40;;;2.20;99.90;;;;;;4818713;29;20234;-85
2021/01/11 02:33:03;;;;;;;0.40;0.40;;;2.20;99.90;;;;;;4785548;29;20238;-85
2021/01/11 02:35:31;;;;;;;0.40;0.40;;;2.20;99.90;;;;;;4818499;29;20212;-85
2021/01/11 02:37:59;;;;;;;0.40;0.40;;;2.20;99.90;;;;;;4818267;29;20243;-85
2021/01/11 02:40:25;;;;;;;0.40;0.40;;;2.20;99.90;;;;;;4818298;29;20593;-85
2021/01/11 02:42:51;;;;;;;0.40;0.40;;;2.20;99.90;;;;;;4818312;29;20217;-85
2021/01/11 02:45:17;;;;;;;0.40;0.40;;;2.20;99.90;;;;;;4818255;29;20219;-85
2021/01/11 02:48:08;;;;;;;0.50;0.50;;;2.20;99.90;;;;;;4818366;29;20567;-85
2021/01/11 02:50:44;;;;;;;0.40;0.40;;;2.20;99.90;;;;;;4818432;29;20242;-85
2021/01/11 02:53:28;;;;;;;0.40;0.40;;;2.20;99.90;;;;;;4820724;29;20223;-85
2021/01/11 02:56:01;;;;;;;0.40;0.40;;;2.30;99.90;;;;;;4821307;29;20240;-85
2021/01/11 02:58:55;;;;;;;0.40;0.40;;;2.20;99.90;;;;;;4821222;29;20218;-85
2021/01/11 03:01:25;;;;;;;0.40;0.40;;;2.20;99.90;;;;;;4821228;29;20216;-84
2021/01/11 03:03:55;;;;;;;0.40;0.40;;;2.10;99.90;;;;;;4821188;29;20675;-85
2021/01/11 03:06:28;;;;;;;0.40;0.40;;;2.30;99.90;;;;;;4821368;29;20217;-85
2021/01/11 03:08:54;;;;;;;0.40;0.40;;;2.50;99.90;;;;;;4821924;29;20212;-84
2021/01/11 03:11:23;;;;;;;0.40;0.40;;;2.30;99.90;;;;;;4823046;29;20680;-84
2021/01/11 03:13:51;;;;;;;0.40;0.40;;;2.10;99.90;;;;;;4822371;29;20567;-84
2021/01/11 03:16:17;;;;;;;0.40;0.40;;;2.20;99.90;;;;;;4821873;29;20235;-84
2021/01/11 03:18:43;;;;;;;0.40;0.40;;;2.30;99.90;;;;;;4820993;29;20208;-84
2021/01/11 03:21:10;;;;;;;0.40;0.40;;;2.30;99.90;;;;;;4820904;29;20221;-85
2021/01/11 03:23:37;;;;;;;0.40;0.40;;;2.10;99.90;;;;;;4820844;29;20244;-84
2021/01/11 03:26:03;;;;;;;0.40;0.40;;;2.30;99.90;;;;;;4820880;29;20831;-85
2021/01/11 03:28:30;;;;;;;0.40;0.40;;;2.20;99.90;;;;;;4820685;29;20534;-85
2021/01/11 03:30:56;;;;;;;0.40;0.40;;;2.30;99.90;;;;;;4820939;29;20223;-85
2021/01/11 03:33:22;;;;;;;0.40;0.40;;;2.20;99.90;;;;;;4820662;29;20216;-84
2021/01/11 03:35:48;;;;;;;0.40;0.40;;;2.20;99.90;;;;;;4820975;29;20220;-84
2021/01/11 03:38:15;;;;;;;0.40;0.40;;;2.20;99.90;;;;;;4820443;29;20267;-84
2021/01/11 03:40:41;;;;;;;0.40;0.40;;;2.30;99.90;;;;;;4820952;29;20252;-84
2021/01/11 03:43:07;;;;;;;0.40;0.40;;;2.30;99.90;;;;;;4820519;29;20216;-85
2021/01/11 03:45:33;;;;;;;0.40;0.40;;;2.30;99.90;;;;;;4820597;29;20212;-84
2021/01/11 03:47:59;;;;;;;0.50;0.50;;;2.30;99.90;;;;;;4821993;29;20797;-84
2021/01/11 03:50:25;;;;;;;0.40;0.40;;;2.30;99.90;;;;;;4823037;29;20213;-84
2021/01/11 03:52:51;;;;;;;0.40;0.40;;;2.30;99.90;;;;;;4823218;29;20208;-84
2021/01/11 03:55:18;;;;;;;0.40;0.40;;;2.20;99.90;;;;;;4822234;29;20216;-84
2021/01/11 03:57:44;;;;;;;0.40;0.40;;;2.30;99.90;;;;;;4822171;29;20727;-84
2021/01/11 04:00:11;;;;;;;0.40;0.40;;;2.30;99.90;;;;;;4822130;29;20220;-84
2021/01/11 04:02:37;;;;;;;0.40;0.40;;;2.30;99.90;;;;;;4822270;29;20280;-84
2021/01/11 04:05:04;;;;;;;0.40;0.40;;;2.20;99.90;;;;;;4822404;29;20212;-84
2021/01/11 04:07:30;;;;;;;0.40;0.40;;;2.30;99.90;;;;;;4822371;29;20212;-84
2021/01/11 04:09:56;;;;;;;0.40;0.40;;;2.30;99.90;;;;;;4822560;29;20212;-84
2021/01/11 04:12:23;;;;;;;0.40;0.40;;;2.30;99.90;;;;;;4822192;29;20267;-84
2021/01/11 04:14:49;;;;;;;0.40;0.40;;;2.30;99.90;;;;;;4822609;29;20265;-84
2021/01/11 04:17:17;;;;;;;0.40;0.40;;;2.30;99.90;;;;;;4822229;29;20239;-84
2021/01/11 04:19:43;;;;;;;0.40;0.40;;;;;;;;;;4821475;29;20216;-84
2021/01/11 04:22:09;;;;;;;0.40;0.40;;;2.30;99.90;;;;;;4821836;29;20232;-84
2021/01/11 04:24:35;;;;;;;0.45;0.45;;;2.30;99.90;;;;;;4820924;29;20321;-84
2021/01/11 04:27:02;;;;;;;0.40;0.40;;;2.30;99.90;;;;;;4821595;29;20208;-84
2021/01/11 04:29:29;;;;;;;0.40;0.40;;;2.40;99.90;;;;;;4821798;29;20212;-84
2021/01/11 04:31:55;;;;;;;0.43;0.43;;;2.30;99.90;;;;;;4821711;29;20219;-84
2021/01/11 04:34:23;;;;;;;0.40;0.40;;;2.30;99.90;;;;;;4821422;29;20219;-84
2021/01/11 04:36:49;;;;;;;0.40;0.40;;;2.30;99.90;;;;;;4821737;29;20269;-84
2021/01/11 04:39:17;;;;;;;0.40;0.40;;;2.10;99.90;;;;;;4821819;29;20208;-84
2021/01/11 04:41:44;;;;;;;0.40;0.40;;;2.30;99.90;;;;;;4821184;29;20249;-84
2021/01/11 04:44:13;;;;;;;0.40;0.40;;;2.30;99.90;;;;;;4821716;29;20213;-84
2021/01/11 04:46:40;;;;;;;0.40;0.40;;;2.10;99.90;;;;;;4821898;29;20212;-84
2021/01/11 04:49:07;;;;;;;0.40;0.40;;;2.30;99.90;;;;;;4821776;29;20212;-84
2021/01/11 04:51:33;;;;;;;0.45;0.45;;;2.30;99.90;;;;;;4821584;29;20424;-84
2021/01/11 04:54:00;;;;;;;0.50;0.50;;;;;;;;;;4821130;29;20212;-84
2021/01/11 04:56:27;;;;;;;0.40;0.40;;;2.30;99.90;;;;;;4821345;29;20284;-84
2021/01/11 04:58:55;;;;;;;0.43;0.43;;;2.30;99.90;;;;;;4821531;29;20219;-84
2021/01/11 05:01:23;;;;;;;0.50;0.50;;;2.30;99.90;;;;;;4821181;29;20216;-84
2021/01/11 05:03:51;;;;;;;0.40;0.40;;;2.30;99.90;;;;;;4821183;29;20220;-84
2021/01/11 05:06:18;;;;;;;0.40;0.40;;;2.00;99.90;;;;;;4820686;29;20223;-83
2021/01/11 05:08:45;;;;;;;0.40;0.40;;;;;;;;;;4820490;29;20216;-84
2021/01/11 05:11:11;;;;;;;0.40;0.40;;;2.30;99.90;;;;;;4820352;29;20298;-84
2021/01/11 05:13:37;;;;;;;0.40;0.40;;;2.30;99.90;;;;;;4820046;29;20212;-84
2021/01/11 05:16:10;;;;;;;0.40;0.40;;;2.30;99.90;;;;;;4819444;29;20216;-84
2021/01/11 05:18:36;;;;;;;0.40;0.40;;;2.30;99.90;;;;;;4819862;29;20217;-84
2021/01/11 05:21:03;;;;;;;0.40;0.40;;;2.40;99.90;;;;;;4819930;29;20216;-84
2021/01/11 05:23:35;;;;;;;0.40;0.40;;;2.00;99.90;;;;;;4819400;29;20255;-84
2021/01/11 05:26:12;;;;;;;0.40;0.40;;;2.30;99.90;;;;;;4819984;29;20212;-84
2021/01/11 05:28:38;;;;;;;0.40;0.40;;;2.20;99.90;;;;;;4819985;29;20216;-84
2021/01/11 05:31:04;;;;;;;0.40;0.40;;;2.20;99.90;;;;;;4820147;29;20219;-84
2021/01/11 05:33:30;;;;;;;0.40;0.40;;;2.20;99.90;;;;;;4819986;29;20219;-84
2021/01/11 05:36:06;;;;;;;0.47;0.47;;;2.20;99.90;;;;;;4819781;29;20209;-84
2021/01/11 05:38:37;;;;;;;0.40;0.40;;;2.20;99.90;;;;;;4820056;29;20218;-84
2021/01/11 05:41:14;;;;;;;0.50;0.50;;;2.30;99.90;;;;;;4820425;29;20433;-84
2021/01/11 05:43:44;;;;;;;0.40;0.40;;;2.20;99.90;;;;;;4820066;29;20285;-84
2021/01/11 05:46:25;;;;;;;0.40;0.40;;;2.20;99.90;;;;;;4820689;29;20243;-84
2021/01/11 05:48:58;;;;;;;0.40;0.40;;;2.20;99.90;;;;;;4820058;29;20230;-84
2021/01/11 05:51:26;;;;;;;0.50;0.50;;;2.20;99.90;;;;;;4820325;29;20208;-84
2021/01/11 05:53:52;;;;;;;0.50;0.50;;;2.20;99.90;;;;;;4820237;29;20220;-84
2021/01/11 05:56:18;;;;;;;0.40;0.40;;;2.20;99.90;;;;;;4820019;29;20272;-83
2021/01/11 05:59:03;;;;;;;0.40;0.40;;;2.20;99.90;;;;;;4819275;29;20208;-84
2021/01/11 06:01:30;;;;;;;0.45;0.45;;;2.20;99.90;;;;;;4819613;29;20513;-84
2021/01/11 06:03:57;;;;;;;0.50;0.50;;;2.20;99.90;;;;;;4819998;29;20246;-84
2021/01/11 06:06:23;;;;;;;0.40;0.40;;;2.20;99.90;;;;;;4820049;29;20208;-84
2021/01/11 06:08:51;;;;;;;0.43;0.43;;;2.20;99.90;;;;;;4819663;29;20246;-84
2021/01/11 06:11:20;;;;;;;0.50;0.50;;;2.20;99.90;;;;;;4819486;29;20326;-84
2021/01/11 06:13:49;;;;;;;0.40;0.40;;;2.20;99.90;;;;;;4819004;29;20216;-84
2021/01/11 06:16:18;;;;;;;0.40;0.40;;;2.20;99.90;;;;;;4818968;29;20216;-84
2021/01/11 06:18:45;;;;;;;0.50;0.50;;;2.10;99.90;;;;;;4818552;29;20212;-84
2021/01/11 06:21:11;;;;;;;0.50;0.50;;;2.10;99.90;;;;;;4818757;29;20212;-84
2021/01/11 06:23:38;;;;;;;0.43;0.43;;;2.10;99.90;;;;;;4818311;29;20274;-84
2021/01/11 06:26:29;;;;;;;0.50;0.50;;;2.10;99.90;;;;;;4819602;29;20252;-84
2021/01/11 06:28:56;;;;;;;0.40;0.40;;;2.00;99.90;;;;;;4822037;29;20222;-84
2021/01/11 06:31:27;;;;;;;0.40;0.40;;;2.10;99.90;;;;;;4822128;29;20694;-84
2021/01/11 06:33:54;;;;;;;0.50;0.50;;;2.10;99.90;;;;;;4821921;29;20235;-84
2021/01/11 06:36:31;;;;;;;0.50;0.50;;;2.10;99.90;;;;;;4822357;29;20220;-84
2021/01/11 06:39:06;;;;;;;0.47;0.47;;;2.10;99.90;;;;;;4822131;29;20408;-84
2021/01/11 06:41:34;;;;;;;0.40;0.40;;;2.10;99.90;;;;;;4821791;29;20698;-84
2021/01/11 06:44:07;;;;;;;0.40;0.40;;;2.10;99.90;;;;;;4822081;29;20224;-84
2021/01/11 06:46:44;;;;;;;0.40;0.40;;;2.10;99.90;;;;;;4821556;29;20215;-84
2021/01/11 06:49:23;;;;;;;0.50;0.50;;;2.10;99.90;;;;;;4821238;29;20767;-85
2021/01/11 06:52:01;;;;;;;0.43;0.43;;;2.00;99.90;;;;;;4821526;29;20208;-84
2021/01/11 06:54:39;;;;;;;0.45;0.45;;;2.00;99.90;;;;;;4821443;29;20272;-85
2021/01/11 06:57:16;;;;;;;0.50;0.50;;;1.90;99.90;;;;;;4821315;29;20236;-85
2021/01/11 06:59:46;;;;;;;0.40;0.40;;;2.00;99.90;;;;;;4821241;29;20223;-85
2021/01/11 07:02:20;;;;;;;0.47;0.47;;;2.00;99.90;;;;;;4821390;29;20732;-84
2021/01/11 07:04:47;;;;;;;0.45;0.45;;;;;;;;;;4820969;29;20212;-85
2021/01/11 07:07:19;;;;;;;0.50;0.50;;;2.00;99.90;;;;;;4821199;29;20212;-84
2021/01/11 07:09:54;;;;;;;0.50;0.50;;;2.00;99.90;;;;;;4822992;29;20216;-84
2021/01/11 07:12:22;;;;;;;0.40;0.40;;;2.00;99.90;;;;;;4822986;29;20284;-84
2021/01/11 07:14:56;;;;;;;0.40;0.40;;;2.00;99.90;;;;;;4821559;29;20756;-85
2021/01/11 07:17:36;;;;;;;0.50;0.50;;;2.00;99.90;;;;;;4820973;29;20235;-86
2021/01/11 07:20:06;;;;;;;0.50;0.50;;;2.00;99.90;;;;;;4821306;29;20658;-82
2021/01/11 07:22:32;;;;;;;0.40;0.40;;;2.00;99.90;;;;;;4822161;29;20213;-80
2021/01/11 07:24:58;;;;;;;0.40;0.40;;;1.90;99.90;;;;;;4823386;29;20212;-84
2021/01/11 07:27:25;;;;;;;0.40;0.40;;;1.80;99.90;;;;;;4821779;29;20212;-84
2021/01/11 07:29:57;;;;;;;0.40;0.40;;;1.80;99.90;;;;;;4823428;29;20208;-84
2021/01/11 07:32:23;;;;;;;0.50;0.50;;;1.80;99.90;;;;;;4822467;29;20215;-83
2021/01/11 07:34:50;;;;;;;0.40;0.40;;;;;;;;;;4821253;29;20217;-80
2021/01/11 07:37:16;;;;;;;0.45;0.45;;;1.80;99.90;;;;;;4820310;29;20314;-81
2021/01/11 07:39:43;;;;;;;0.40;0.40;;;1.80;99.90;;;;;;4820731;29;20223;-81
2021/01/11 07:42:09;;;;;;;0.50;0.50;;;1.80;99.90;;;;;;4820822;29;20244;-81
2021/01/11 07:44:41;;;;;;;0.40;0.40;;;1.80;99.90;;;;;;4820704;29;20223;-82
2021/01/11 07:47:09;;;;;;;0.40;0.40;;;1.60;99.90;;;;;;4821206;29;20209;-83
2021/01/11 07:49:37;;;;;;;0.50;0.50;;;1.70;99.90;;;;;;4820858;29;20212;-83
2021/01/11 07:52:04;;;;;;;0.50;0.50;;;1.60;99.90;;;;;;4821039;29;20216;-83
2021/01/11 07:54:31;;;;;;;0.50;0.50;;;1.60;99.90;;;;;;4821857;29;20216;-85
2021/01/11 07:56:57;;;;;;;0.43;0.43;;;1.60;99.90;;;;;;4822133;29;20235;-84
2021/01/11 07:59:24;;;;;;;0.40;0.40;;;1.60;99.90;;;;;;4821940;29;20412;-82
2021/01/11 08:01:53;;;;;;;0.50;0.50;;;1.60;99.90;;;;;;4822563;29;20243;-84
2021/01/11 08:04:20;;;;;;;0.40;0.40;;;1.50;99.90;;;;;;4821932;29;20224;-84
2021/01/11 08:06:53;;;;;;;0.40;0.40;;;1.50;99.90;;;;;;4821452;29;20272;-84
2021/01/11 08:09:21;;;;;;;0.40;0.40;;;1.30;99.90;;;;;;4821721;29;20302;-84
2021/01/11 08:11:48;;;;;;;0.43;0.43;;;2.50;99.90;;;;;;4821345;29;20684;-84
2021/01/11 08:14:14;;;;;;;0.50;0.50;;;1.50;99.90;;;;;;4820784;29;20209;-84
2021/01/11 08:16:43;;;;;;;0.50;0.50;;;1.40;99.90;;;;;;4820945;29;20619;-84
2021/01/11 08:19:12;;;;;;;0.50;0.50;;;1.40;99.90;;;;;;4820722;29;20216;-84
2021/01/11 08:21:39;;;;;;;0.40;0.40;;;1.40;99.90;;;;;;4805425;29;20223;-84
2021/01/11 08:24:07;;;;;;;0.40;0.40;;;1.40;99.90;;;;;;4812008;29;20243;-84
2021/01/11 08:26:46;;;;;;;0.50;0.50;;;1.20;99.90;;;;;;4837388;29;20215;-83
2021/01/11 08:29:13;;;;;;;0.40;0.40;;;1.30;99.90;;;;;;4833864;29;20211;-83
2021/01/11 08:31:40;;;;;;;0.45;0.45;;;1.30;99.90;;;;;;4838051;29;20219;-84
2021/01/11 08:34:07;;;;;;;0.40;0.40;;;1.30;99.90;;;;;;4832148;29;20648;-84
2021/01/11 08:36:34;;;;;;;0.40;0.40;;;2.20;99.90;;;;;;4830161;29;20683;-83
2021/01/11 08:39:11;;;;;;;0.40;0.40;;;1.30;99.90;;;;;;4830642;29;20639;-84
2021/01/11 08:41:40;;;;;;;0.45;0.45;;;1.30;99.90;;;;;;4831493;29;20215;-83
2021/01/11 08:44:06;;;;;;;0.50;0.50;;;1.30;99.90;;;;;;4830143;29;20692;-84
2021/01/11 08:46:52;;;;;;;0.50;0.50;;;1.90;99.90;;;;;;4832904;29;20208;-84
2021/01/11 08:49:19;;;;;;;0.50;0.50;;;1.30;99.90;;;;;;4831622;29;20640;-84
2021/01/11 08:51:46;;;;;;;0.45;0.45;;;1.40;99.90;;;;;;4832020;29;20224;-84
2021/01/11 08:54:27;;;;;;;0.50;0.50;;;1.30;99.90;;;;;;4828127;29;20692;-83
2021/01/11 08:56:55;;;;;;;0.50;0.50;;;1.30;99.90;;;;;;4831464;29;20568;-83
2021/01/11 08:59:21;;;;;;;0.40;0.40;;;1.00;99.90;;;;;;4834061;29;20566;-84
2021/01/11 09:01:48;;;;;;;0.50;0.50;;;1.30;99.90;;;;;;4829182;29;20212;-85
2021/01/11 09:04:29;;;;;;;0.50;0.50;;;1.20;99.90;;;;;;4827469;29;20691;-86
2021/01/11 09:07:01;;;;;;;0.40;0.40;;;1.30;99.90;;;;;;4829028;29;20215;-84
2021/01/11 09:09:29;;;;;;;0.50;0.50;;;1.20;99.90;;;;;;4830247;29;20216;-85
2021/01/11 09:12:01;;;;;;;0.43;0.43;;;1.30;99.90;;;;;;4830617;29;20244;-83
2021/01/11 09:14:27;;;;;;;0.40;0.40;;;1.30;99.90;;;;;;4832232;29;20215;-84
2021/01/11 09:16:59;;;;;;;0.40;0.40;;;1.30;99.90;;;;;;4832123;29;20223;-83
2021/01/11 09:19:25;;;;;;;0.40;0.40;;;1.30;99.90;;;;;;4830487;29;20461;-84
2021/01/11 09:22:15;;;;;;;0.50;0.50;;;1.30;99.90;;;;;;4826138;29;20208;-83
2021/01/11 09:24:43;;;;;;;0.40;0.40;;;1.50;99.90;;;;;;4831251;29;20243;-84
2021/01/11 09:27:12;;;;;;;0.40;0.40;;;1.40;99.90;;;;;;4835011;29;20214;-86
2021/01/11 09:29:38;;;;;;;0.40;0.40;;;1.30;99.90;;;;;;4833944;29;20212;-82
2021/01/11 09:32:13;;;;;;;0.50;0.50;;;1.40;99.90;;;;;;4831365;29;20207;-81
2021/01/11 09:34:39;;;;;;;0.50;0.50;;;0.80;99.90;;;;;;4831476;29;20234;-80
2021/01/11 09:37:13;;;;;;;0.40;0.40;;;1.40;99.90;;;;;;4830376;29;20230;-81
2021/01/11 09:39:40;;;;;;;0.50;0.50;;;1.30;99.90;;;;;;4828251;29;20230;-81
2021/01/11 09:42:06;;;;;;;0.43;0.43;;;1.30;99.90;;;;;;4828699;29;20217;-81
2021/01/11 09:44:33;;;;;;;0.43;0.43;;;1.40;99.90;;;;;;4832458;29;20211;-81
2021/01/11 09:47:00;;;;;;;0.50;0.50;;;1.30;99.90;;;;;;4834749;29;20215;-82
2021/01/11 09:49:26;;;;;;;0.50;0.50;;;1.40;99.90;;;;;;4828962;29;20280;-82
2021/01/11 09:51:53;;;;;;;0.50;0.50;;;1.40;99.90;;;;;;4829730;29;20223;-82
2021/01/11 09:54:21;;;;;;;0.45;0.45;;;1.40;99.90;;;;;;4843683;29;20212;-83
2021/01/11 09:56:47;;;;;;;0.40;0.40;;;1.40;99.90;;;;;;4833886;29;20212;-82
2021/01/11 09:59:15;;;;;;;0.50;0.50;;;1.40;99.90;;;;;;4835385;29;20623;-83
2021/01/11 10:01:42;;;;;;;0.50;0.50;;;1.40;99.90;;;;;;4838889;29;20581;-84
2021/01/11 10:04:09;;;;;;;0.40;0.40;;;1.40;99.90;;;;;;4840787;29;20203;-83
2021/01/11 10:06:39;;;;;;;0.40;0.40;;;1.40;99.90;;;;;;4836776;29;20664;-83
2021/01/11 10:09:06;;;;;;;0.50;0.50;;;1.40;99.90;;;;;;4840711;29;20220;-82
2021/01/11 10:11:33;;;;;;;0.40;0.40;;;1.40;99.90;;;;;;4839959;29;20239;-82
2021/01/11 10:13:59;;;;;;;0.40;0.40;;;1.40;99.90;;;;;;4840506;29;20212;-82
2021/01/11 10:16:25;;;;;;;0.40;0.40;;;1.40;99.90;;;;;;4839909;29;20259;-84
2021/01/11 10:18:51;;;;;;;0.50;0.50;;;1.50;99.90;;;;;;4835930;29;20238;-84
2021/01/11 10:21:19;;;;;;;0.40;0.40;;;1.50;99.90;;;;;;4839548;29;20214;-84
2021/01/11 10:23:45;;;;;;;0.40;0.40;;;1.50;99.90;;;;;;4838473;29;20247;-86
2021/01/11 10:26:18;;;;;;;0.40;0.40;;;1.50;99.90;;;;;;4840044;29;20218;-87
2021/01/11 10:28:46;;;;;;;0.40;0.40;;;1.50;99.90;;;;;;4839298;29;20673;-86
2021/01/11 10:31:12;;;;;;;0.40;0.40;;;1.50;99.90;;;;;;4839620;29;20218;-84
2021/01/11 10:33:38;;;;;;;0.40;0.40;;;1.50;99.90;;;;;;4839426;29;20219;-87
2021/01/11 10:36:05;;;;;;;0.50;0.50;;;1.50;99.90;;;;;;4839651;29;20264;-79
2021/01/11 10:38:31;;;;;;;0.40;0.40;;;1.40;99.90;;;;;;4838327;29;20228;-84
2021/01/11 10:40:57;;;;;;;0.40;0.40;;;1.50;99.90;;;;;;4839445;29;20212;-83
2021/01/11 10:43:24;;;;;;;0.50;0.50;;;1.50;99.90;;;;;;4838982;29;20215;-85
2021/01/11 10:45:51;;;;;;;0.40;0.40;;;1.30;99.90;;;;;;4839039;29;20220;-84
2021/01/11 10:48:17;;;;;;;0.43;0.43;;;1.50;99.90;;;;;;4838709;29;20216;-86
2021/01/11 10:50:43;;;;;;;0.40;0.40;;;1.50;99.90;;;;;;4839197;29;20208;-87
2021/01/11 10:53:09;;;;;;;0.45;0.45;;;1.50;99.90;;;;;;4838751;29;20575;-84
2021/01/11 10:55:35;;;;;;;0.40;0.40;;;1.50;99.90;;;;;;4838802;29;20252;-85
2021/01/11 10:58:01;;;;;;;0.50;0.50;;;1.50;99.90;;;;;;4837815;29;20260;-84
2021/01/11 11:00:28;;;;;;;0.40;0.40;;;1.60;99.90;;;;;;4838210;29;20223;-78
2021/01/11 11:02:55;;;;;;;0.50;0.50;;;1.60;99.90;;;;;;4838263;29;20226;-84
2021/01/11 11:05:21;;;;;;;0.40;0.40;;;1.50;99.90;;;;;;4838900;29;20549;-81
2021/01/11 11:07:47;;;;;;;0.45;0.45;;;1.60;99.90;;;;;;4837592;29;20590;-81
2021/01/11 11:10:13;;;;;;;0.40;0.40;;;1.60;99.90;;;;;;4838282;29;20533;-80
2021/01/11 11:12:42;;;;;;;0.40;0.40;;;1.60;99.90;;;;;;4837254;29;20224;-82
2021/01/11 11:15:09;;;;;;;0.40;0.40;;;1.60;99.90;;;;;;4838093;29;20461;-81
2021/01/11 11:17:35;;;;;;;0.50;0.50;;;1.60;99.90;;;;;;4838075;29;20227;-82
2021/01/11 11:20:03;;;;;;;0.40;0.40;;;1.60;99.90;;;;;;4838347;29;20215;-82
2021/01/11 11:22:29;;;;;;;0.40;0.40;;;1.70;99.90;;;;;;4839059;29;20239;-83
2021/01/11 11:24:55;;;;;;;0.40;0.40;;;1.60;99.90;;;;;;4836111;29;20207;-82
2021/01/11 11:27:21;;;;;;;0.40;0.40;;;1.60;99.90;;;;;;4836673;29;20208;-82
2021/01/11 11:29:48;;;;;;;0.50;0.50;;;1.60;99.90;;;;;;4837172;29;20220;-82
2021/01/11 11:32:16;;;;;;;0.40;0.40;;;1.60;99.90;;;;;;4838201;29;20627;-83
2021/01/11 11:34:42;;;;;;;0.40;0.40;;;1.60;99.90;;;;;;4838183;29;20216;-83
2021/01/11 11:37:09;;;;;;;0.40;0.40;;;1.50;99.90;;;;;;4837095;29;20754;-83
2021/01/11 11:39:36;;;;;;;0.40;0.40;;;1.70;99.90;;;;;;4838550;29;20239;-84
2021/01/11 11:42:02;;;;;;;0.50;0.50;;;1.40;99.90;;;;;;4837564;29;20215;-84
2021/01/11 11:44:28;;;;;;;0.45;0.45;;;1.60;99.90;;;;;;4837633;29;20695;-83
2021/01/11 11:46:54;;;;;;;0.50;0.50;;;1.60;99.90;;;;;;4837361;29;20211;-83
2021/01/11 11:49:20;;;;;;;0.50;0.50;;;1.70;99.90;;;;;;4837785;29;20216;-82
2021/01/11 11:51:47;;;;;;;0.40;0.40;;;1.70;99.90;;;;;;4836518;29;20214;-82
2021/01/11 11:54:14;;;;;;;0.43;0.43;;;1.60;99.90;;;;;;4837526;29;20739;-82
2021/01/11 11:56:41;;;;;;;0.40;0.40;;;1.60;99.90;;;;;;4835618;29;20291;-82
2021/01/11 11:59:07;;;;;;;0.40;0.40;;;1.60;99.90;;;;;;4834012;29;20272;-82
2021/01/11 12:01:37;;;;;;;0.50;0.50;;;1.60;99.90;;;;;;4833240;29;20216;-82
2021/01/11 12:04:04;;;;;;;0.50;0.50;;;2.10;99.90;;;;;;4837912;29;20244;-82
2021/01/11 12:06:38;;;;;;;0.43;0.43;;;1.40;99.90;;;;;;4837527;29;20705;-83
2021/01/11 12:09:05;;;;;;;0.50;0.50;;;1.60;99.90;;;;;;4837530;29;20591;-82
2021/01/11 12:11:42;;;;;;;0.50;0.50;;;1.70;99.90;;;;;;4837405;29;20208;-82
2021/01/11 12:14:08;;;;;;;0.50;0.50;;;1.70;99.90;;;;;;4836413;29;20621;-82
2021/01/11 12:16:34;;;;;;;0.40;0.40;;;1.60;99.90;;;;;;4838475;29;20216;-82
2021/01/11 12:19:00;;;;;;;0.50;0.50;;;1.70;99.90;;;;;;4838474;29;20235;-83
2021/01/11 12:21:30;;;;;;;0.50;0.50;;;1.60;99.90;;;;;;4838320;29;20275;-81
2021/01/11 12:23:56;;;;;;;0.40;0.40;;;1.70;99.90;;;;;;4836828;29;20336;-82
2021/01/11 12:26:23;;;;;;;0.40;0.40;;;1.40;99.90;;;;;;4838051;29;20694;-82
2021/01/11 12:28:50;;;;;;;0.40;0.40;;;1.70;99.90;;;;;;4837554;29;20613;-82
2021/01/11 12:31:16;;;;;;;0.50;0.50;;;1.60;99.90;;;;;;4837980;29;20561;-82
2021/01/11 12:33:42;;;;;;;0.40;0.40;;;2.20;99.90;;;;;;4837873;29;20288;-81
2021/01/11 12:36:09;;;;;;;0.50;0.50;;;1.60;99.90;;;;;;4838296;29;20218;-82
2021/01/11 12:38:35;;;;;;;0.40;0.40;;;1.70;99.90;;;;;;4837726;29;20287;-84
2021/01/11 12:41:01;;;;;;;0.40;0.40;;;1.80;99.90;;;;;;4837729;29;20450;-82
2021/01/11 12:43:29;;;;;;;0.40;0.40;;;1.40;99.90;;;;;;4837792;29;20921;-83
2021/01/11 12:45:56;;;;;;;0.40;0.40;;;1.70;99.90;;;;;;4837803;29;20703;-85
2021/01/11 12:48:22;;;;;;;0.50;0.50;;;1.70;99.90;;;;;;4837851;29;20211;-85
2021/01/11 12:50:48;;;;;;;0.50;0.50;;;1.80;99.90;;;;;;4837949;29;20234;-86
2021/01/11 12:53:14;;;;;;;0.50;0.50;;;1.90;99.90;;;;;;4837216;29;20208;-85
2021/01/11 12:55:42;;;;;;;0.50;0.50;;;1.80;99.90;;;;;;4834190;29;20223;-86
2021/01/11 12:58:08;;;;;;;0.40;0.40;;;1.90;99.90;;;;;;4837650;29;20228;-85
2021/01/11 13:00:35;;;;;;;0.40;0.40;;;1.80;99.90;;;;;;4838040;29;20238;-86
2021/01/11 13:03:03;;;;;;;0.50;0.50;;;1.80;99.90;;;;;;4837703;29;20306;-86
2021/01/11 13:05:32;;;;;;;0.40;0.40;;;1.80;99.90;;;;;;4836598;29;20667;-87
2021/01/11 13:07:58;;;;;;;0.50;0.50;;;1.70;99.90;;;;;;4836682;29;20247;-84
2021/01/11 13:10:24;;;;;;;0.40;0.40;;;1.80;99.90;;;;;;4843740;29;20251;-84